<?xml version="1.0" encoding="UTF-8" standalone="no" ?>
<gpx xmlns="http://www.topografix.com/GPX/1/1" xmlns:xsi="http://www.w3.org/2001/XMLSchema-instance" xsi:schemaLocation="http://www.topografix.com/GPX/1/1 http://www.topografix.com/GPX/1/1/gpx.xsd" version="1.1" creator="VisuGPX - https://www.visugpx.com">
  <metadata>
    <name>rando 17 kms 14 mai</name>
  </metadata>
  <wpt lat="47.01158" lon="5.77568">
    <ele>234</ele>
    <name><![CDATA[Cramans ccva 2023]]></name>
    <type><![CDATA[Generic]]></type>
  </wpt>
  <trk>
    <name><![CDATA[Cramans ccva 2023]]></name>
    <extensions>
      <line xmlns="http://www.topografix.com/GPX/gpx_style/0/2">
        <color>0000FF</color>
        <width>4</width>
      </line>
    </extensions>
    <trkseg>
      <trkpt lat="47.01158" lon="5.77568">
        <ele>234</ele>
        <time>2023-05-06T10:01:10Z</time>
      </trkpt>
      <trkpt lat="47.01122" lon="5.76631">
        <ele>232</ele>
        <time>2023-05-06T10:01:23Z</time>
      </trkpt>
      <trkpt lat="47.01122" lon="5.76601">
        <ele>232</ele>
        <time>2023-05-06T10:01:26Z</time>
      </trkpt>
      <trkpt lat="47.00979" lon="5.75784">
        <ele>231.6</ele>
        <time>2023-05-06T10:01:36Z</time>
      </trkpt>
      <trkpt lat="47.00983" lon="5.75765">
        <ele>231.2</ele>
        <time>2023-05-06T10:01:46Z</time>
      </trkpt>
      <trkpt lat="47.00758" lon="5.75696">
        <ele>231</ele>
        <time>2023-05-06T10:01:56Z</time>
      </trkpt>
      <trkpt lat="47.00688" lon="5.75621">
        <ele>231.3</ele>
        <time>2023-05-06T10:02:02Z</time>
      </trkpt>
      <trkpt lat="47.0051" lon="5.75503">
        <ele>231</ele>
        <time>2023-05-06T10:02:13Z</time>
      </trkpt>
      <trkpt lat="47.00408" lon="5.75478">
        <ele>231</ele>
        <time>2023-05-06T10:02:23Z</time>
      </trkpt>
      <trkpt lat="47.00387" lon="5.7545">
        <ele>231.7</ele>
        <time>2023-05-06T10:02:39Z</time>
      </trkpt>
      <trkpt lat="47.00252" lon="5.75265">
        <ele>231</ele>
        <time>2023-05-06T10:02:51Z</time>
      </trkpt>
      <trkpt lat="47.00186" lon="5.75196">
        <ele>231</ele>
        <time>2023-05-06T10:03:02Z</time>
      </trkpt>
      <trkpt lat="47.0017" lon="5.75414">
        <ele>231</ele>
        <time>2023-05-06T10:03:14Z</time>
      </trkpt>
      <trkpt lat="47.00162" lon="5.75514">
        <ele>231.2</ele>
        <time>2023-05-06T10:03:32Z</time>
      </trkpt>
      <trkpt lat="47.00177" lon="5.75657">
        <ele>231</ele>
        <time>2023-05-06T10:03:46Z</time>
      </trkpt>
      <trkpt lat="47.00166" lon="5.75693">
        <ele>231</ele>
        <time>2023-05-06T10:03:56Z</time>
      </trkpt>
      <trkpt lat="47.00123" lon="5.75772">
        <ele>232.4</ele>
        <time>2023-05-06T10:04:05Z</time>
      </trkpt>
      <trkpt lat="47.00118" lon="5.76031">
        <ele>233.6</ele>
        <time>2023-05-06T10:04:25Z</time>
      </trkpt>
      <trkpt lat="47.00167" lon="5.76145">
        <ele>233</ele>
        <time>2023-05-06T10:04:37Z</time>
      </trkpt>
      <trkpt lat="47.00197" lon="5.76284">
        <ele>232.9</ele>
        <time>2023-05-06T10:04:50Z</time>
      </trkpt>
      <trkpt lat="47.0036" lon="5.76211">
        <ele>232</ele>
        <time>2023-05-06T10:05:07Z</time>
      </trkpt>
      <trkpt lat="47.00496" lon="5.77164">
        <ele>234</ele>
        <time>2023-05-06T10:05:25Z</time>
      </trkpt>
      <trkpt lat="47.00576" lon="5.77226">
        <ele>233.7</ele>
        <time>2023-05-06T10:05:34Z</time>
      </trkpt>
      <trkpt lat="47.00771" lon="5.77363">
        <ele>234</ele>
        <time>2023-05-06T10:05:46Z</time>
      </trkpt>
      <trkpt lat="47.00707" lon="5.77407">
        <ele>234</ele>
        <time>2023-05-06T10:05:49Z</time>
      </trkpt>
      <trkpt lat="47.00481" lon="5.77444">
        <ele>234</ele>
        <time>2023-05-06T10:05:54Z</time>
      </trkpt>
      <trkpt lat="47.00413" lon="5.77496">
        <ele>235.1</ele>
        <time>2023-05-06T10:06:06Z</time>
      </trkpt>
      <trkpt lat="47.00252" lon="5.77522">
        <ele>238.8</ele>
        <time>2023-05-06T10:06:13Z</time>
      </trkpt>
      <trkpt lat="47.00256" lon="5.77539">
        <ele>239.4</ele>
        <time>2023-05-06T10:06:16Z</time>
      </trkpt>
      <trkpt lat="47.0044" lon="5.77813">
        <ele>237</ele>
        <time>2023-05-06T10:06:28Z</time>
      </trkpt>
      <trkpt lat="47.00566" lon="5.7799">
        <ele>235.2</ele>
        <time>2023-05-06T10:06:46Z</time>
      </trkpt>
      <trkpt lat="47.00831" lon="5.78566">
        <ele>235.4</ele>
        <time>2023-05-06T10:06:49Z</time>
      </trkpt>
      <trkpt lat="47.00799" lon="5.78593">
        <ele>236.3</ele>
        <time>2023-05-06T10:07:06Z</time>
      </trkpt>
      <trkpt lat="47.00791" lon="5.7862">
        <ele>237.1</ele>
        <time>2023-05-06T10:07:24Z</time>
      </trkpt>
      <trkpt lat="47.00621" lon="5.7883">
        <ele>247.5</ele>
        <time>2023-05-06T10:07:42Z</time>
      </trkpt>
      <trkpt lat="47.00521" lon="5.79045">
        <ele>258.3</ele>
        <time>2023-05-06T10:07:51Z</time>
      </trkpt>
      <trkpt lat="47.00486" lon="5.79096">
        <ele>260.8</ele>
        <time>2023-05-06T10:08:11Z</time>
      </trkpt>
      <trkpt lat="47.00485" lon="5.79156">
        <ele>263.8</ele>
        <time>2023-05-06T10:08:22Z</time>
      </trkpt>
      <trkpt lat="47.0045" lon="5.79191">
        <ele>265.2</ele>
        <time>2023-05-06T10:08:42Z</time>
      </trkpt>
      <trkpt lat="47.00177" lon="5.79779">
        <ele>271</ele>
        <time>2023-05-06T10:08:53Z</time>
      </trkpt>
      <trkpt lat="47.00234" lon="5.79795">
        <ele>269.4</ele>
        <time>2023-05-06T10:08:57Z</time>
      </trkpt>
      <trkpt lat="47.00614" lon="5.79918">
        <ele>267.1</ele>
        <time>2023-05-06T10:09:12Z</time>
      </trkpt>
      <trkpt lat="47.0094" lon="5.79971">
        <ele>268</ele>
        <time>2023-05-06T10:09:21Z</time>
      </trkpt>
      <trkpt lat="47.01175" lon="5.79977">
        <ele>263.7</ele>
        <time>2023-05-06T10:09:24Z</time>
      </trkpt>
      <trkpt lat="47.01233" lon="5.79974">
        <ele>263.8</ele>
        <time>2023-05-06T10:09:33Z</time>
      </trkpt>
      <trkpt lat="47.01271" lon="5.79953">
        <ele>264.3</ele>
        <time>2023-05-06T10:09:53Z</time>
      </trkpt>
      <trkpt lat="47.01299" lon="5.80051">
        <ele>265.8</ele>
        <time>2023-05-06T10:10:04Z</time>
      </trkpt>
      <trkpt lat="47.01329" lon="5.80056">
        <ele>265.2</ele>
        <time>2023-05-06T10:10:11Z</time>
      </trkpt>
      <trkpt lat="47.01394" lon="5.80013">
        <ele>261.7</ele>
        <time>2023-05-06T10:10:14Z</time>
      </trkpt>
      <trkpt lat="47.01455" lon="5.79986">
        <ele>257.7</ele>
        <time>2023-05-06T10:10:34Z</time>
      </trkpt>
      <trkpt lat="47.01525" lon="5.80067">
        <ele>257.3</ele>
        <time>2023-05-06T10:10:51Z</time>
      </trkpt>
      <trkpt lat="47.01601" lon="5.80084">
        <ele>261.6</ele>
        <time>2023-05-06T10:10:57Z</time>
      </trkpt>
      <trkpt lat="47.0169" lon="5.80155">
        <ele>262.7</ele>
        <time>2023-05-06T10:11:12Z</time>
      </trkpt>
      <trkpt lat="47.01729" lon="5.80212">
        <ele>264.6</ele>
        <time>2023-05-06T10:11:32Z</time>
      </trkpt>
      <trkpt lat="47.01847" lon="5.80256">
        <ele>265.2</ele>
        <time>2023-05-06T10:11:48Z</time>
      </trkpt>
      <trkpt lat="47.01961" lon="5.80345">
        <ele>261.1</ele>
        <time>2023-05-06T10:12:05Z</time>
      </trkpt>
      <trkpt lat="47.02079" lon="5.80339">
        <ele>254.5</ele>
        <time>2023-05-06T10:12:17Z</time>
      </trkpt>
      <trkpt lat="47.02136" lon="5.80307">
        <ele>252.1</ele>
        <time>2023-05-06T10:12:22Z</time>
      </trkpt>
      <trkpt lat="47.02174" lon="5.80297">
        <ele>252.5</ele>
        <time>2023-05-06T10:12:34Z</time>
      </trkpt>
      <trkpt lat="47.02215" lon="5.80348">
        <ele>257</ele>
        <time>2023-05-06T10:12:43Z</time>
      </trkpt>
      <trkpt lat="47.02301" lon="5.8043">
        <ele>265.6</ele>
        <time>2023-05-06T10:13:03Z</time>
      </trkpt>
      <trkpt lat="47.0235" lon="5.8046">
        <ele>270.8</ele>
        <time>2023-05-06T10:13:07Z</time>
      </trkpt>
      <trkpt lat="47.02416" lon="5.80542">
        <ele>276</ele>
        <time>2023-05-06T10:13:13Z</time>
      </trkpt>
      <trkpt lat="47.02426" lon="5.8056">
        <ele>277.1</ele>
        <time>2023-05-06T10:13:20Z</time>
      </trkpt>
      <trkpt lat="47.02559" lon="5.80633">
        <ele>287.2</ele>
        <time>2023-05-06T10:13:39Z</time>
      </trkpt>
      <trkpt lat="47.02652" lon="5.80629">
        <ele>296.9</ele>
        <time>2023-05-06T10:13:46Z</time>
      </trkpt>
      <trkpt lat="47.0271" lon="5.80607">
        <ele>304.7</ele>
        <time>2023-05-06T10:13:48Z</time>
      </trkpt>
      <trkpt lat="47.02784" lon="5.80642">
        <ele>313.7</ele>
        <time>2023-05-06T10:13:58Z</time>
      </trkpt>
      <trkpt lat="47.0286" lon="5.80694">
        <ele>322.9</ele>
        <time>2023-05-06T10:14:12Z</time>
      </trkpt>
      <trkpt lat="47.03038" lon="5.80728">
        <ele>333.8</ele>
        <time>2023-05-06T10:14:17Z</time>
      </trkpt>
      <trkpt lat="47.03119" lon="5.80731">
        <ele>334.7</ele>
        <time>2023-05-06T10:14:23Z</time>
      </trkpt>
      <trkpt lat="47.0319" lon="5.8071">
        <ele>329.3</ele>
        <time>2023-05-06T10:14:36Z</time>
      </trkpt>
      <trkpt lat="47.03245" lon="5.80808">
        <ele>335.6</ele>
        <time>2023-05-06T10:14:38Z</time>
      </trkpt>
      <trkpt lat="47.03392" lon="5.81008">
        <ele>341.6</ele>
        <time>2023-05-06T10:14:58Z</time>
      </trkpt>
      <trkpt lat="47.03553" lon="5.81062">
        <ele>333</ele>
        <time>2023-05-06T10:15:00Z</time>
      </trkpt>
      <trkpt lat="47.03585" lon="5.81097">
        <ele>328.8</ele>
        <time>2023-05-06T10:15:16Z</time>
      </trkpt>
      <trkpt lat="47.03624" lon="5.81066">
        <ele>324.8</ele>
        <time>2023-05-06T10:15:26Z</time>
      </trkpt>
      <trkpt lat="47.03624" lon="5.81006">
        <ele>323.5</ele>
        <time>2023-05-06T10:15:35Z</time>
      </trkpt>
      <trkpt lat="47.03654" lon="5.80954">
        <ele>313.5</ele>
        <time>2023-05-06T10:15:43Z</time>
      </trkpt>
      <trkpt lat="47.03662" lon="5.80931">
        <ele>309.3</ele>
        <time>2023-05-06T10:16:03Z</time>
      </trkpt>
      <trkpt lat="47.03662" lon="5.80926">
        <ele>308.9</ele>
        <time>2023-05-06T10:16:19Z</time>
      </trkpt>
      <trkpt lat="47.03678" lon="5.8089">
        <ele>300.7</ele>
        <time>2023-05-06T10:16:35Z</time>
      </trkpt>
      <trkpt lat="47.03628" lon="5.80828">
        <ele>300</ele>
        <time>2023-05-06T10:16:45Z</time>
      </trkpt>
      <trkpt lat="47.03489" lon="5.80694">
        <ele>295.7</ele>
        <time>2023-05-06T10:16:54Z</time>
      </trkpt>
      <trkpt lat="47.03441" lon="5.80642">
        <ele>294.9</ele>
        <time>2023-05-06T10:17:14Z</time>
      </trkpt>
      <trkpt lat="47.03387" lon="5.80604">
        <ele>294.6</ele>
        <time>2023-05-06T10:17:22Z</time>
      </trkpt>
      <trkpt lat="47.03319" lon="5.80596">
        <ele>298.1</ele>
        <time>2023-05-06T10:17:35Z</time>
      </trkpt>
      <trkpt lat="47.03275" lon="5.8058">
        <ele>299.7</ele>
        <time>2023-05-06T10:17:44Z</time>
      </trkpt>
      <trkpt lat="47.03204" lon="5.80582">
        <ele>306.1</ele>
        <time>2023-05-06T10:17:47Z</time>
      </trkpt>
      <trkpt lat="47.03081" lon="5.80493">
        <ele>301.4</ele>
        <time>2023-05-06T10:17:58Z</time>
      </trkpt>
      <trkpt lat="47.02965" lon="5.80475">
        <ele>302.6</ele>
        <time>2023-05-06T10:18:16Z</time>
      </trkpt>
      <trkpt lat="47.02802" lon="5.80396">
        <ele>291.7</ele>
        <time>2023-05-06T10:18:29Z</time>
      </trkpt>
      <trkpt lat="47.0274" lon="5.80385">
        <ele>287.9</ele>
        <time>2023-05-06T10:18:35Z</time>
      </trkpt>
      <trkpt lat="47.02714" lon="5.80373">
        <ele>284.9</ele>
        <time>2023-05-06T10:18:48Z</time>
      </trkpt>
      <trkpt lat="47.02634" lon="5.80312">
        <ele>275.3</ele>
        <time>2023-05-06T10:19:06Z</time>
      </trkpt>
      <trkpt lat="47.02547" lon="5.8034">
        <ele>271.6</ele>
        <time>2023-05-06T10:19:08Z</time>
      </trkpt>
      <trkpt lat="47.02498" lon="5.80333">
        <ele>271</ele>
        <time>2023-05-06T10:19:17Z</time>
      </trkpt>
      <trkpt lat="47.02417" lon="5.80302">
        <ele>268.7</ele>
        <time>2023-05-06T10:19:37Z</time>
      </trkpt>
      <trkpt lat="47.02343" lon="5.80165">
        <ele>258.8</ele>
        <time>2023-05-06T10:19:46Z</time>
      </trkpt>
      <trkpt lat="47.023" lon="5.80134">
        <ele>254.5</ele>
        <time>2023-05-06T10:19:51Z</time>
      </trkpt>
      <trkpt lat="47.02259" lon="5.80013">
        <ele>246.8</ele>
        <time>2023-05-06T10:20:09Z</time>
      </trkpt>
      <trkpt lat="47.02248" lon="5.79892">
        <ele>240</ele>
        <time>2023-05-06T10:20:14Z</time>
      </trkpt>
      <trkpt lat="47.02217" lon="5.798">
        <ele>237</ele>
        <time>2023-05-06T10:20:18Z</time>
      </trkpt>
      <trkpt lat="47.0224" lon="5.79632">
        <ele>235.9</ele>
        <time>2023-05-06T10:20:22Z</time>
      </trkpt>
      <trkpt lat="47.0225" lon="5.79571">
        <ele>235.5</ele>
        <time>2023-05-06T10:20:32Z</time>
      </trkpt>
      <trkpt lat="47.02239" lon="5.79487">
        <ele>235</ele>
        <time>2023-05-06T10:20:38Z</time>
      </trkpt>
      <trkpt lat="47.02269" lon="5.79261">
        <ele>233.8</ele>
        <time>2023-05-06T10:20:44Z</time>
      </trkpt>
      <trkpt lat="47.0221" lon="5.79185">
        <ele>234.4</ele>
        <time>2023-05-06T10:20:57Z</time>
      </trkpt>
      <trkpt lat="47.02156" lon="5.79223">
        <ele>235</ele>
        <time>2023-05-06T10:21:11Z</time>
      </trkpt>
      <trkpt lat="47.02118" lon="5.79189">
        <ele>235</ele>
        <time>2023-05-06T10:21:28Z</time>
      </trkpt>
      <trkpt lat="47.01856" lon="5.78808">
        <ele>234</ele>
        <time>2023-05-06T10:21:37Z</time>
      </trkpt>
      <trkpt lat="47.01773" lon="5.78689">
        <ele>234</ele>
        <time>2023-05-06T10:21:49Z</time>
      </trkpt>
      <trkpt lat="47.01608" lon="5.78812">
        <ele>234</ele>
        <time>2023-05-06T10:22:04Z</time>
      </trkpt>
      <trkpt lat="47.01458" lon="5.78919">
        <ele>234</ele>
        <time>2023-05-06T10:22:16Z</time>
      </trkpt>
      <trkpt lat="47.01406" lon="5.78911">
        <ele>235</ele>
        <time>2023-05-06T10:22:22Z</time>
      </trkpt>
      <trkpt lat="47.01391" lon="5.78868">
        <ele>240.2</ele>
        <time>2023-05-06T10:22:31Z</time>
      </trkpt>
      <trkpt lat="47.01202" lon="5.78512">
        <ele>235</ele>
        <time>2023-05-06T10:22:36Z</time>
      </trkpt>
      <trkpt lat="47.01086" lon="5.7827">
        <ele>234</ele>
        <time>2023-05-06T10:22:46Z</time>
      </trkpt>
      <trkpt lat="47.01188" lon="5.78141">
        <ele>234</ele>
        <time>2023-05-06T10:22:56Z</time>
      </trkpt>
      <trkpt lat="47.01157" lon="5.7809">
        <ele>234</ele>
        <time>2023-05-06T10:23:13Z</time>
      </trkpt>
      <trkpt lat="47.01116" lon="5.77784">
        <ele>234</ele>
        <time>2023-05-06T10:23:21Z</time>
      </trkpt>
      <trkpt lat="47.01178" lon="5.77685">
        <ele>234</ele>
        <time>2023-05-06T10:23:29Z</time>
      </trkpt>
      <trkpt lat="47.01159" lon="5.77645">
        <ele>234</ele>
        <time>2023-05-06T10:23:35Z</time>
      </trkpt>
      <trkpt lat="47.01152" lon="5.7765">
        <ele>234</ele>
        <time>2023-05-06T10:23:54Z</time>
      </trkpt>
      <trkpt lat="47.01132" lon="5.77622">
        <ele>234</ele>
        <time>2023-05-06T10:24:08Z</time>
      </trkpt>
      <trkpt lat="47.01148" lon="5.77599">
        <ele>234</ele>
        <time>2023-05-06T10:24:20Z</time>
      </trkpt>
      <trkpt lat="47.01158" lon="5.77568">
        <ele>234</ele>
        <time>2023-05-06T10:24:28Z</time>
      </trkpt>
      <trkpt lat="47.01158" lon="5.77568">
        <ele>234</ele>
        <time>2023-05-06T10:24:46Z</time>
      </trkpt>
    </trkseg>
  </trk>
</gpx>